Time;durP1;ratioP1;P1;durP2;ratioP2;P2;SDS_P1;SDS_P2;PMS_P1;PMS_P2;Temp;Humidity;BMP_temperature;BMP_pressure;BME280_temperature;BME280_humidity;BME280_pressure;Samples;Min_cycle;Max_cycle;Signal;HPM_P1;HPM_P2
2023/04/08 00:01:53;;;;;;;6.70;3.80;;;4.70;99.90;;;;;;5071314;28;20049;-71
2023/04/08 00:04:19;;;;;;;5.70;3.92;;;4.70;99.90;;;;;;5071268;28;20480;-71
2023/04/08 00:06:45;;;;;;;5.53;3.95;;;4.70;99.90;;;;;;5069623;28;20439;-71
2023/04/08 00:09:11;;;;;;;4.78;3.58;;;4.60;99.90;;;;;;5070792;28;20041;-71
2023/04/08 00:11:36;;;;;;;6.25;4.18;;;4.60;99.90;;;;;;5069840;28;20075;-72
2023/04/08 00:14:03;;;;;;;6.60;4.22;;;4.60;99.90;;;;;;5071013;28;20511;-71
2023/04/08 00:16:29;;;;;;;6.20;4.05;;;4.60;99.90;;;;;;5071270;28;20131;-72
2023/04/08 00:18:55;;;;;;;6.32;4.15;;;4.60;99.90;;;;;;5071076;28;20127;-71
2023/04/08 00:21:22;;;;;;;6.18;4.30;;;4.80;99.90;;;;;;5070837;28;20497;-73
2023/04/08 00:23:48;;;;;;;6.70;3.97;;;4.50;99.90;;;;;;5069776;28;20135;-71
2023/04/08 00:26:14;;;;;;;7.30;4.75;;;4.40;99.90;;;;;;5052538;28;20128;-71
2023/04/08 00:28:41;;;;;;;7.53;4.45;;;4.50;99.90;;;;;;5069970;28;20083;-74
2023/04/08 00:31:07;;;;;;;6.78;4.68;;;4.40;99.90;;;;;;5071052;28;20067;-73
2023/04/08 00:33:33;;;;;;;7.70;4.45;;;4.60;99.90;;;;;;5070141;28;20133;-73
2023/04/08 00:35:58;;;;;;;6.35;4.40;;;4.30;99.90;;;;;;5070652;28;20087;-71
2023/04/08 00:38:24;;;;;;;6.40;4.75;;;4.30;99.90;;;;;;5068953;28;20044;-71
2023/04/08 00:40:50;;;;;;;7.15;4.45;;;4.20;99.90;;;;;;5071175;28;20051;-72
2023/04/08 00:43:19;;;;;;;6.32;4.10;;;4.20;99.90;;;;;;5069628;28;20056;-71
2023/04/08 00:45:45;;;;;;;8.23;5.22;;;4.20;99.90;;;;;;5069954;28;20108;-72
2023/04/08 00:48:11;;;;;;;7.22;4.65;;;4.20;99.90;;;;;;5057431;28;20053;-71
2023/04/08 00:50:37;;;;;;;6.60;4.68;;;4.10;99.90;;;;;;5075155;28;20044;-71
2023/04/08 00:53:02;;;;;;;5.78;3.92;;;4.10;99.90;;;;;;5073592;28;20646;-71
2023/04/08 00:55:28;;;;;;;7.15;4.28;;;4.10;99.90;;;;;;5073491;28;20076;-71
2023/04/08 00:57:55;;;;;;;7.72;4.78;;;4.10;99.90;;;;;;5074550;28;20493;-71
2023/04/08 01:00:21;;;;;;;8.82;4.95;;;4.00;99.90;;;;;;5074820;28;20097;-72
2023/04/08 01:02:55;;;;;;;8.02;4.65;;;3.90;99.90;;;;;;5073256;28;20083;-73
2023/04/08 01:05:45;;;;;;;6.72;4.43;;;3.80;99.90;;;;;;5073302;28;20052;-73
2023/04/08 01:08:11;;;;;;;7.25;4.85;;;3.80;99.90;;;;;;5074021;28;20126;-71
2023/04/08 01:10:41;;;;;;;6.15;4.85;;;3.60;99.90;;;;;;5074748;28;20048;-71
2023/04/08 01:13:16;;;;;;;7.10;4.90;;;3.70;99.90;;;;;;5073453;28;20061;-72
2023/04/08 01:15:44;;;;;;;7.50;4.97;;;3.50;99.90;;;;;;5074281;28;20535;-71
2023/04/08 01:18:12;;;;;;;6.85;4.80;;;3.40;99.90;;;;;;5056611;28;20064;-72
2023/04/08 01:20:40;;;;;;;6.80;4.85;;;3.50;99.90;;;;;;5073109;28;20057;-71
2023/04/08 01:23:31;;;;;;;8.82;4.57;;;3.40;99.90;;;;;;5074360;28;20048;-71
2023/04/08 01:25:57;;;;;;;7.65;5.30;;;3.40;99.90;;;;;;5073802;28;20060;-72
2023/04/08 01:28:27;;;;;;;6.68;4.60;;;3.40;99.90;;;;;;5074267;28;20076;-72
2023/04/08 01:30:56;;;;;;;6.65;4.63;;;3.30;99.90;;;;;;5074364;28;20045;-71
2023/04/08 01:33:23;;;;;;;8.00;4.90;;;3.30;99.90;;;;;;5073137;28;20049;-73
2023/04/08 01:35:51;;;;;;;6.88;5.15;;;3.20;99.90;;;;;;5072797;28;20053;-72
2023/04/08 01:38:19;;;;;;;6.25;4.65;;;3.20;99.90;;;;;;5072422;28;20052;-71
2023/04/08 01:40:46;;;;;;;7.00;4.82;;;3.20;99.90;;;;;;5056399;28;20052;-71
2023/04/08 01:43:16;;;;;;;5.55;4.50;;;3.30;99.90;;;;;;5073016;28;20127;-71
2023/04/08 01:45:47;;;;;;;8.57;5.00;;;3.20;99.90;;;;;;5056132;28;20067;-71
2023/04/08 01:48:14;;;;;;;6.65;4.88;;;3.30;99.90;;;;;;5074290;28;20055;-72
2023/04/08 01:50:44;;;;;;;7.07;4.70;;;3.30;99.90;;;;;;5072930;28;20460;-71
2023/04/08 01:53:11;;;;;;;7.10;4.90;;;3.40;99.90;;;;;;5072531;28;20704;-71
2023/04/08 01:55:39;;;;;;;8.43;4.63;;;3.10;99.90;;;;;;5072437;28;20048;-71
2023/04/08 01:58:07;;;;;;;7.68;5.10;;;3.20;99.90;;;;;;5072234;28;20055;-73
2023/04/08 02:00:34;;;;;;;7.65;4.70;;;3.20;99.90;;;;;;5072845;28;20118;-71
2023/04/08 02:03:01;;;;;;;6.70;4.55;;;3.10;99.90;;;;;;5056006;28;20052;-71
2023/04/08 02:05:27;;;;;;;7.22;4.75;;;3.10;99.90;;;;;;5072458;28;20726;-71
2023/04/08 02:07:53;;;;;;;7.55;4.88;;;3.00;99.90;;;;;;5072947;28;20105;-71
2023/04/08 02:10:19;;;;;;;8.15;5.30;;;3.00;99.90;;;;;;5073535;28;20151;-71
2023/04/08 02:12:45;;;;;;;7.80;5.15;;;2.90;99.90;;;;;;5073509;28;20052;-71
2023/04/08 02:15:12;;;;;;;7.80;5.47;;;2.90;99.90;;;;;;5072402;28;20086;-71
2023/04/08 02:17:48;;;;;;;7.60;5.50;;;2.90;99.90;;;;;;5072092;28;20057;-72
2023/04/08 02:20:37;;;;;;;8.00;5.90;;;2.90;99.90;;;;;;5072493;28;20056;-71
2023/04/08 02:23:09;;;;;;;7.88;5.88;;;2.90;99.90;;;;;;5049948;28;20056;-71
2023/04/08 02:25:39;;;;;;;9.95;6.22;;;3.10;99.90;;;;;;5071872;28;20055;-71
2023/04/08 02:28:08;;;;;;;9.07;5.90;;;2.90;99.90;;;;;;5073201;28;20047;-71
2023/04/08 02:30:35;;;;;;;7.25;5.35;;;3.10;99.90;;;;;;5072014;28;20044;-71
2023/04/08 02:33:04;;;;;;;7.88;5.78;;;2.90;99.90;;;;;;5071848;28;20071;-72
2023/04/08 02:35:31;;;;;;;8.63;5.70;;;2.90;99.90;;;;;;5071965;28;20155;-73
2023/04/08 02:37:56;;;;;;;8.13;6.07;;;3.00;99.90;;;;;;5071275;28;20048;-71
2023/04/08 02:40:26;;;;;;;8.23;5.82;;;2.90;99.90;;;;;;5072591;28;20425;-72
2023/04/08 02:42:52;;;;;;;7.85;5.90;;;2.90;99.90;;;;;;5055127;28;20059;-72
2023/04/08 02:45:19;;;;;;;10.15;6.43;;;2.90;99.90;;;;;;5071585;28;20409;-72
2023/04/08 02:47:44;;;;;;;9.52;6.75;;;3.10;99.90;;;;;;5071508;28;20048;-72
2023/04/08 02:50:10;;;;;;;8.80;5.82;;;3.00;99.90;;;;;;5071678;28;20044;-72
2023/04/08 02:52:36;;;;;;;9.00;5.72;;;2.90;99.90;;;;;;5072509;28;20091;-71
2023/04/08 02:55:01;;;;;;;8.25;5.63;;;2.90;99.90;;;;;;5072433;28;20048;-74
2023/04/08 02:57:27;;;;;;;11.38;6.03;;;3.10;99.90;;;;;;5072478;28;20052;-72
2023/04/08 02:59:53;;;;;;;9.77;6.38;;;3.00;99.90;;;;;;5054623;28;20657;-72
2023/04/08 03:02:19;;;;;;;10.48;7.18;;;2.70;99.90;;;;;;5071321;28;20036;-72
2023/04/08 03:04:45;;;;;;;10.00;6.60;;;2.80;99.90;;;;;;5071233;28;20045;-75
2023/04/08 03:07:10;;;;;;;9.68;6.40;;;2.80;99.90;;;;;;5071930;28;20516;-72
2023/04/08 03:09:36;;;;;;;10.50;6.03;;;2.80;99.90;;;;;;5071753;28;20045;-73
2023/04/08 03:12:02;;;;;;;9.98;6.70;;;2.80;99.90;;;;;;5072468;28;20052;-73
2023/04/08 03:14:27;;;;;;;9.02;6.35;;;2.80;99.90;;;;;;5054557;28;20060;-73
2023/04/08 03:16:53;;;;;;;9.65;7.20;;;2.90;99.90;;;;;;5071070;28;20103;-72
2023/04/08 03:19:19;;;;;;;9.00;6.25;;;3.00;99.90;;;;;;5071224;28;20055;-73
2023/04/08 03:21:44;;;;;;;9.88;6.43;;;3.10;99.90;;;;;;5070759;28;20131;-74
2023/04/08 03:24:10;;;;;;;8.57;6.00;;;2.90;99.90;;;;;;5072108;28;20056;-73
2023/04/08 03:26:35;;;;;;;9.00;5.93;;;3.10;99.90;;;;;;5072133;28;20382;-72
2023/04/08 03:29:01;;;;;;;10.07;6.53;;;2.80;99.90;;;;;;5070663;28;20049;-73
2023/04/08 03:31:27;;;;;;;9.40;6.22;;;3.00;99.90;;;;;;5070688;28;20501;-70
2023/04/08 03:33:52;;;;;;;8.55;5.97;;;2.70;99.90;;;;;;5070733;28;20059;-70
2023/04/08 03:36:18;;;;;;;9.63;6.32;;;2.90;99.90;;;;;;5071391;28;20041;-70
2023/04/08 03:38:44;;;;;;;8.43;6.13;;;3.20;99.90;;;;;;5069120;28;20404;-71
2023/04/08 03:41:10;;;;;;;9.48;5.63;;;2.70;99.90;;;;;;5069712;28;20048;-71
2023/04/08 03:43:35;;;;;;;8.30;6.30;;;2.70;99.90;;;;;;5071014;28;20055;-70
2023/04/08 03:46:01;;;;;;;10.82;7.00;;;2.80;99.90;;;;;;5071244;28;20386;-71
2023/04/08 03:48:27;;;;;;;9.25;6.10;;;2.70;99.90;;;;;;5071721;28;20049;-70
2023/04/08 03:50:52;;;;;;;10.57;7.05;;;2.80;99.90;;;;;;5070212;28;20044;-71
2023/04/08 03:53:18;;;;;;;8.98;5.93;;;2.90;99.90;;;;;;5071558;28;20049;-70
2023/04/08 03:55:44;;;;;;;8.80;6.13;;;3.50;99.90;;;;;;5070196;28;20090;-71
2023/04/08 03:58:10;;;;;;;10.68;6.90;;;2.70;99.90;;;;;;5070497;28;20060;-71
2023/04/08 04:00:36;;;;;;;9.30;6.13;;;2.70;99.90;;;;;;5070291;28;20049;-71
2023/04/08 04:03:01;;;;;;;9.10;6.75;;;2.90;99.90;;;;;;5070350;28;20111;-70
2023/04/08 04:05:28;;;;;;;10.68;6.45;;;2.80;99.90;;;;;;5053443;28;20051;-70
2023/04/08 04:07:53;;;;;;;9.57;6.53;;;2.80;99.90;;;;;;5070905;28;20044;-70
2023/04/08 04:10:19;;;;;;;10.27;6.25;;;2.90;99.90;;;;;;5071478;28;20547;-71
2023/04/08 04:12:46;;;;;;;10.68;6.68;;;2.90;99.90;;;;;;5036788;28;20081;-70
2023/04/08 04:15:12;;;;;;;9.95;6.63;;;3.20;99.90;;;;;;5069911;28;20086;-71
2023/04/08 04:17:37;;;;;;;10.27;6.57;;;2.80;99.90;;;;;;5070293;28;20091;-71
2023/04/08 04:20:05;;;;;;;10.23;6.88;;;3.20;99.90;;;;;;5071165;28;20060;-71
2023/04/08 04:22:31;;;;;;;9.55;6.68;;;2.90;99.90;;;;;;5070202;28;20052;-70
2023/04/08 04:24:56;;;;;;;12.13;8.30;;;2.90;99.90;;;;;;5069395;28;20055;-70
2023/04/08 04:27:22;;;;;;;11.88;8.00;;;2.90;99.90;;;;;;5053638;28;20162;-70
2023/04/08 04:29:48;;;;;;;12.65;7.25;;;3.00;99.90;;;;;;5069741;28;20063;-70
2023/04/08 04:32:13;;;;;;;10.85;8.20;;;3.00;99.90;;;;;;5069968;28;20397;-71
2023/04/08 04:34:39;;;;;;;11.32;6.75;;;3.00;99.90;;;;;;5070028;28;20401;-71
2023/04/08 04:37:05;;;;;;;8.45;6.43;;;3.50;99.90;;;;;;5070569;28;20048;-71
2023/04/08 04:39:31;;;;;;;10.45;7.10;;;3.10;99.90;;;;;;5069979;28;20049;-70
2023/04/08 04:41:56;;;;;;;10.82;6.18;;;3.00;99.90;;;;;;5053455;28;20052;-70
2023/04/08 04:44:22;;;;;;;10.95;6.70;;;3.30;99.90;;;;;;5036855;28;20064;-70
2023/04/08 04:46:48;;;;;;;11.77;7.30;;;3.20;99.90;;;;;;5071106;28;20056;-70
2023/04/08 04:49:14;;;;;;;11.98;7.18;;;3.00;99.90;;;;;;5069794;28;20048;-70
2023/04/08 04:51:42;;;;;;;9.55;6.13;;;3.00;99.90;;;;;;5069471;28;20050;-70
2023/04/08 04:54:07;;;;;;;12.50;7.40;;;3.20;99.90;;;;;;5069579;28;20045;-72
2023/04/08 04:56:33;;;;;;;10.70;7.50;;;3.20;99.90;;;;;;5069132;28;20040;-71
2023/04/08 04:58:59;;;;;;;12.73;7.68;;;3.20;99.90;;;;;;5070436;28;20630;-70
2023/04/08 05:01:24;;;;;;;11.13;7.18;;;3.20;99.90;;;;;;5070770;28;20056;-71
2023/04/08 05:03:50;;;;;;;10.68;6.88;;;3.30;99.90;;;;;;5069791;28;20045;-72
2023/04/08 05:06:16;;;;;;;11.38;7.60;;;3.40;99.90;;;;;;5052760;28;20055;-72
2023/04/08 05:08:41;;;;;;;12.40;7.85;;;3.40;99.90;;;;;;5070251;28;20709;-72
2023/04/08 05:11:10;;;;;;;11.70;7.88;;;3.50;99.90;;;;;;5070718;28;20061;-72
2023/04/08 05:13:36;;;;;;;11.32;7.32;;;3.50;99.90;;;;;;5070439;28;20497;-66
2023/04/08 05:16:02;;;;;;;13.25;7.78;;;3.60;99.90;;;;;;5070471;28;20068;-64
2023/04/08 05:18:27;;;;;;;11.90;7.80;;;3.60;99.90;;;;;;5070773;28;20057;-65
2023/04/08 05:20:53;;;;;;;11.13;7.07;;;3.80;99.90;;;;;;5069361;28;20070;-65
2023/04/08 05:23:19;;;;;;;10.07;6.45;;;3.70;99.90;;;;;;5070894;28;20537;-65
2023/04/08 05:25:45;;;;;;;12.27;7.80;;;3.50;99.90;;;;;;5051932;28;20052;-65
2023/04/08 05:28:11;;;;;;;12.35;7.95;;;3.40;99.90;;;;;;5070673;28;20057;-65
2023/04/08 05:30:36;;;;;;;12.43;7.97;;;3.30;99.90;;;;;;5070719;28;20095;-64
2023/04/08 05:33:02;;;;;;;11.85;7.70;;;3.30;99.90;;;;;;5071397;28;20076;-64
2023/04/08 05:35:28;;;;;;;13.07;7.53;;;3.20;99.90;;;;;;5074228;28;20044;-65
2023/04/08 05:37:54;;;;;;;12.73;7.68;;;3.20;99.90;;;;;;5072464;28;20060;-64
2023/04/08 05:40:20;;;;;;;12.27;7.30;;;3.20;99.90;;;;;;5074185;28;20040;-64
2023/04/08 05:42:45;;;;;;;10.82;6.68;;;3.20;99.90;;;;;;5074128;28;20530;-64
2023/04/08 05:45:12;;;;;;;11.38;7.35;;;3.20;99.90;;;;;;5073961;28;20036;-64
2023/04/08 05:47:37;;;;;;;12.65;7.85;;;3.30;99.90;;;;;;5073872;28;20508;-65
2023/04/08 05:50:03;;;;;;;13.15;7.75;;;3.60;99.90;;;;;;5073867;28;20048;-65
2023/04/08 05:52:29;;;;;;;12.70;7.65;;;3.40;99.90;;;;;;5074011;28;20051;-64
2023/04/08 05:54:55;;;;;;;11.82;7.72;;;3.50;99.90;;;;;;5073857;28;20396;-65
2023/04/08 05:57:20;;;;;;;13.93;8.38;;;3.60;99.90;;;;;;5073757;28;20178;-65
2023/04/08 05:59:46;;;;;;;12.82;8.20;;;3.70;99.90;;;;;;5055655;28;20076;-65
2023/04/08 06:02:12;;;;;;;14.10;8.80;;;3.90;99.90;;;;;;5074022;28;20061;-65
2023/04/08 06:04:37;;;;;;;14.20;8.10;;;4.00;99.90;;;;;;5073556;28;20049;-64
2023/04/08 06:07:04;;;;;;;14.82;8.70;;;4.20;99.90;;;;;;5055101;28;20158;-65
2023/04/08 06:09:34;;;;;;;16.65;9.90;;;4.40;99.90;;;;;;5072615;28;20153;-64
2023/04/08 06:12:00;;;;;;;14.43;9.25;;;4.60;99.90;;;;;;5073450;28;20044;-65
2023/04/08 06:14:25;;;;;;;15.55;9.27;;;4.80;99.90;;;;;;5073402;28;20529;-64
2023/04/08 06:16:53;;;;;;;15.98;9.15;;;4.90;99.90;;;;;;5073709;28;20474;-65
2023/04/08 06:19:19;;;;;;;14.40;9.43;;;5.10;99.90;;;;;;5072837;28;20052;-65
2023/04/08 06:21:44;;;;;;;14.38;9.77;;;5.10;99.90;;;;;;5073194;28;20051;-64
2023/04/08 06:24:10;;;;;;;17.23;9.45;;;5.20;99.90;;;;;;5073176;28;20044;-64
2023/04/08 06:26:36;;;;;;;18.60;10.18;;;5.30;99.90;;;;;;5072975;28;20056;-64
2023/04/08 06:29:03;;;;;;;15.00;9.27;;;5.40;99.90;;;;;;5073222;28;20052;-65
2023/04/08 06:31:30;;;;;;;16.30;9.77;;;5.40;99.90;;;;;;5073187;28;20052;-65
2023/04/08 06:33:55;;;;;;;14.80;8.70;;;5.60;99.90;;;;;;5072148;28;20063;-66
2023/04/08 06:36:21;;;;;;;16.67;10.40;;;5.70;99.90;;;;;;5073140;28;20428;-65
2023/04/08 06:38:47;;;;;;;14.50;9.00;;;5.70;99.90;;;;;;5072465;28;20049;-65
2023/04/08 06:41:12;;;;;;;13.60;9.30;;;5.80;99.90;;;;;;5072997;28;20087;-65
2023/04/08 06:43:38;;;;;;;16.60;9.13;;;5.90;99.90;;;;;;5072000;28;20045;-65
2023/04/08 06:46:04;;;;;;;16.25;9.30;;;6.00;99.90;;;;;;5072756;28;20051;-65
2023/04/08 06:48:29;;;;;;;14.93;9.52;;;6.00;99.90;;;;;;5072765;28;20497;-67
2023/04/08 06:50:56;;;;;;;15.68;9.63;;;6.00;99.90;;;;;;5072075;28;20048;-65
2023/04/08 06:53:25;;;;;;;13.60;9.13;;;6.00;99.90;;;;;;5071491;28;20093;-65
2023/04/08 06:55:51;;;;;;;16.38;9.13;;;6.20;99.90;;;;;;5072586;28;20049;-65
2023/04/08 06:58:17;;;;;;;13.80;8.05;;;5.80;99.90;;;;;;5071009;28;20052;-65
2023/04/08 07:00:43;;;;;;;15.15;9.38;;;5.80;99.90;;;;;;5072380;28;20758;-65
2023/04/08 07:03:10;;;;;;;14.93;9.25;;;5.80;99.90;;;;;;5071782;28;20080;-64
2023/04/08 07:05:36;;;;;;;17.25;9.88;;;5.80;99.90;;;;;;5072111;28;20087;-65
2023/04/08 07:08:02;;;;;;;14.50;8.40;;;5.80;99.90;;;;;;5071137;28;20052;-65
2023/04/08 07:10:27;;;;;;;13.75;8.70;;;5.90;99.90;;;;;;5072283;28;20146;-64
2023/04/08 07:12:53;;;;;;;14.77;8.68;;;6.00;99.90;;;;;;5072284;28;20060;-65
2023/04/08 07:15:19;;;;;;;15.30;8.52;;;6.10;99.90;;;;;;5071186;28;20064;-65
2023/04/08 07:17:45;;;;;;;15.85;9.98;;;6.20;99.90;;;;;;5072309;28;20497;-65
2023/04/08 07:20:12;;;;;;;15.70;9.00;;;6.30;99.90;;;;;;5071994;28;20113;-65
2023/04/08 07:22:38;;;;;;;14.75;9.18;;;6.40;99.90;;;;;;5070688;28;20040;-65
2023/04/08 07:25:05;;;;;;;13.55;8.32;;;6.50;99.90;;;;;;5071317;28;20057;-65
2023/04/08 07:27:32;;;;;;;15.13;8.48;;;6.60;99.90;;;;;;5072053;28;20060;-65
2023/04/08 07:29:58;;;;;;;14.95;9.50;;;6.70;99.90;;;;;;5071959;28;20044;-65
2023/04/08 07:32:24;;;;;;;15.05;8.70;;;6.80;99.90;;;;;;5071689;28;20154;-65
2023/04/08 07:34:49;;;;;;;15.90;9.32;;;6.90;99.90;;;;;;5071877;28;20501;-66
2023/04/08 07:37:16;;;;;;;15.23;8.82;;;7.00;99.90;;;;;;5071041;28;20507;-65
2023/04/08 07:39:42;;;;;;;15.10;10.00;;;7.10;99.90;;;;;;5071459;28;20080;-65
2023/04/08 07:42:08;;;;;;;13.77;9.13;;;7.10;99.90;;;;;;5071481;28;20096;-65
2023/04/08 07:44:33;;;;;;;14.82;9.35;;;7.20;99.90;;;;;;5071670;28;20041;-65
2023/04/08 07:46:59;;;;;;;15.73;10.18;;;7.40;99.90;;;;;;5071635;28;20051;-65
2023/04/08 07:49:25;;;;;;;15.55;9.57;;;7.50;99.90;;;;;;5071661;28;20045;-65
2023/04/08 07:51:50;;;;;;;13.63;9.30;;;7.50;99.90;;;;;;5071467;28;20217;-65
2023/04/08 07:54:16;;;;;;;13.40;8.25;;;7.70;99.90;;;;;;5071038;28;20037;-65
2023/04/08 07:56:45;;;;;;;13.90;9.13;;;7.70;99.90;;;;;;5071098;28;20051;-65
2023/04/08 07:59:11;;;;;;;12.45;7.95;;;7.80;99.90;;;;;;5071324;28;20535;-65
2023/04/08 08:01:37;;;;;;;13.40;8.43;;;7.80;99.90;;;;;;5071241;28;20044;-65
2023/04/08 08:04:03;;;;;;;17.27;13.07;;;7.70;99.90;;;;;;5070750;28;20048;-65
2023/04/08 08:06:31;;;;;;;14.70;8.82;;;7.80;99.90;;;;;;5071257;28;20131;-65
2023/04/08 08:08:57;;;;;;;14.40;8.60;;;7.70;99.90;;;;;;5070490;28;20095;-65
2023/04/08 08:11:23;;;;;;;12.68;8.02;;;7.70;99.90;;;;;;5070788;28;20072;-65
2023/04/08 08:13:48;;;;;;;11.63;7.40;;;7.60;99.90;;;;;;5071143;28;20044;-65
2023/04/08 08:16:14;;;;;;;11.98;7.88;;;7.60;99.90;;;;;;5070517;28;20044;-65
2023/04/08 08:18:40;;;;;;;13.00;8.30;;;7.80;99.90;;;;;;5070917;28;20082;-65
2023/04/08 08:21:07;;;;;;;11.23;7.15;;;7.90;99.90;;;;;;5069737;28;20036;-65
2023/04/08 08:23:32;;;;;;;12.30;7.53;;;8.00;99.90;;;;;;5067040;28;20098;-65
2023/04/08 08:26:03;;;;;;;10.93;7.05;;;8.10;99.90;;;;;;5069862;28;20439;-65
2023/04/08 08:28:29;;;;;;;12.20;7.70;;;8.00;99.90;;;;;;5071112;28;20048;-65
2023/04/08 08:30:55;;;;;;;12.07;7.35;;;8.00;99.90;;;;;;5070963;28;20396;-65
2023/04/08 08:33:21;;;;;;;11.45;7.22;;;8.00;99.90;;;;;;5070380;28;20573;-65
2023/04/08 08:35:46;;;;;;;11.65;7.18;;;8.00;99.90;;;;;;5070481;28;20127;-65
2023/04/08 08:38:12;;;;;;;13.27;8.05;;;8.10;99.90;;;;;;5070090;28;20052;-65
2023/04/08 08:40:38;;;;;;;11.70;7.85;;;8.10;99.90;;;;;;5070388;28;20532;-65
2023/04/08 08:43:04;;;;;;;12.38;8.05;;;8.10;99.90;;;;;;5067757;28;20045;-67
2023/04/08 08:45:31;;;;;;;12.52;7.90;;;8.20;99.90;;;;;;5068750;28;20094;-64
2023/04/08 08:47:57;;;;;;;11.15;7.70;;;8.20;99.90;;;;;;5070534;28;20084;-64
2023/04/08 08:50:23;;;;;;;12.77;7.85;;;8.30;99.90;;;;;;5080123;28;20095;-65
2023/04/08 08:52:52;;;;;;;10.55;7.57;;;8.40;99.90;;;;;;5089542;28;20062;-65
2023/04/08 08:55:19;;;;;;;11.30;7.72;;;8.50;99.90;;;;;;5089719;28;20048;-65
2023/04/08 08:57:45;;;;;;;13.02;8.05;;;8.70;99.90;;;;;;5090146;28;20083;-65
2023/04/08 09:00:14;;;;;;;10.60;7.53;;;8.80;99.90;;;;;;5079181;28;20048;-67
2023/04/08 09:02:40;;;;;;;10.20;7.18;;;8.90;99.90;;;;;;5068477;28;20052;-66
2023/04/08 09:05:07;;;;;;;11.60;7.85;;;9.00;99.90;;;;;;5069594;28;20124;-66
2023/04/08 09:07:39;;;;;;;10.40;8.18;;;9.10;99.90;;;;;;5071095;28;20518;-66
2023/04/08 09:10:05;;;;;;;12.85;9.30;;;9.10;99.90;;;;;;5074113;28;20044;-66
2023/04/08 09:12:31;;;;;;;11.88;7.88;;;9.00;99.90;;;;;;5074118;28;20158;-66
2023/04/08 09:15:07;;;;;;;12.23;8.55;;;8.80;99.90;;;;;;5073810;28;20537;-66
2023/04/08 09:17:38;;;;;;;12.23;8.45;;;8.80;99.90;;;;;;5073919;28;20044;-66
2023/04/08 09:20:11;;;;;;;12.40;8.27;;;8.70;99.90;;;;;;5053886;28;20049;-66
2023/04/08 09:22:57;;;;;;;11.82;8.23;;;8.60;99.90;;;;;;5052869;28;20127;-67
2023/04/08 09:25:25;;;;;;;13.48;9.30;;;8.50;99.90;;;;;;5053384;28;20064;-67
2023/04/08 09:27:51;;;;;;;13.05;8.50;;;8.60;99.90;;;;;;5053632;28;20069;-65
2023/04/08 09:30:17;;;;;;;13.02;8.98;;;8.70;99.90;;;;;;5053524;28;20170;-65
2023/04/08 09:33:05;;;;;;;12.75;8.80;;;8.70;99.90;;;;;;5053507;28;20060;-66
2023/04/08 09:35:31;;;;;;;14.15;9.30;;;8.90;99.90;;;;;;5067593;28;20091;-66
2023/04/08 09:37:57;;;;;;;14.18;9.00;;;9.00;99.90;;;;;;5072879;28;20084;-65
2023/04/08 09:40:26;;;;;;;12.23;8.95;;;9.00;99.90;;;;;;5073197;28;20082;-65
2023/04/08 09:42:55;;;;;;;13.02;9.05;;;9.00;99.90;;;;;;5053340;28;20489;-65
2023/04/08 09:45:20;;;;;;;13.98;9.23;;;8.90;99.90;;;;;;5058451;28;20033;-63
2023/04/08 09:48:05;;;;;;;14.95;9.70;;;8.90;99.90;;;;;;5073412;28;20461;-63
2023/04/08 09:50:35;;;;;;;13.85;10.15;;;8.80;99.90;;;;;;5072310;28;20091;-65
2023/04/08 09:53:18;;;;;;;13.18;9.15;;;8.80;99.90;;;;;;5073473;28;20404;-64
2023/04/08 09:55:49;;;;;;;14.00;9.15;;;8.90;99.90;;;;;;5073432;28;20066;-64
2023/04/08 09:58:22;;;;;;;13.73;9.68;;;8.90;99.90;;;;;;5073050;28;20055;-64
2023/04/08 10:00:51;;;;;;;14.55;10.48;;;9.00;99.90;;;;;;5073269;28;20048;-65
2023/04/08 10:03:25;;;;;;;21.20;12.10;;;9.10;99.90;;;;;;5071832;28;20166;-64
2023/04/08 10:05:53;;;;;;;14.48;9.50;;;9.20;99.90;;;;;;5072093;28;20051;-64
2023/04/08 10:08:19;;;;;;;14.95;9.73;;;9.20;99.90;;;;;;5072338;28;20048;-64
2023/04/08 10:10:46;;;;;;;12.95;9.05;;;9.30;99.90;;;;;;5072981;28;20056;-65
2023/04/08 10:13:12;;;;;;;13.45;8.80;;;9.50;99.90;;;;;;5072958;28;20048;-75
2023/04/08 10:15:40;;;;;;;12.73;8.57;;;9.60;99.90;;;;;;5054850;28;20059;-76
2023/04/08 10:18:09;;;;;;;12.88;7.95;;;9.70;99.90;;;;;;5071665;28;20044;-76
2023/04/08 10:20:34;;;;;;;11.98;8.30;;;9.70;99.90;;;;;;5070988;28;20048;-77
2023/04/08 10:23:17;;;;;;;12.15;9.00;;;9.70;99.90;;;;;;5054966;28;20141;-75
2023/04/08 10:25:47;;;;;;;13.27;9.20;;;9.70;99.90;;;;;;5071382;28;20060;-77
2023/04/08 10:28:18;;;;;;;14.80;9.32;;;9.70;99.90;;;;;;5072551;28;20053;-76
2023/04/08 10:30:52;;;;;;;12.20;8.77;;;9.70;99.90;;;;;;5071622;28;20118;-75
2023/04/08 10:33:33;;;;;;;12.93;8.70;;;9.70;99.90;;;;;;5072573;28;20055;-75
2023/04/08 10:36:01;;;;;;;13.55;8.95;;;9.80;99.90;;;;;;5071258;28;20078;-76
2023/04/08 10:38:27;;;;;;;11.35;8.25;;;9.80;99.90;;;;;;5070073;28;20045;-74
2023/04/08 10:40:53;;;;;;;12.73;8.25;;;9.80;99.90;;;;;;5071063;28;20047;-74
2023/04/08 10:43:19;;;;;;;13.07;9.50;;;9.80;99.90;;;;;;5070943;28;20036;-74
2023/04/08 10:45:45;;;;;;;11.85;7.65;;;9.80;99.90;;;;;;5071170;28;20048;-73
2023/04/08 10:48:13;;;;;;;11.80;8.48;;;9.80;99.90;;;;;;5054522;28;20047;-74
2023/04/08 10:50:39;;;;;;;11.88;8.38;;;9.90;99.90;;;;;;5070799;28;20048;-74
2023/04/08 10:53:06;;;;;;;11.95;7.93;;;9.90;99.90;;;;;;5071196;28;20063;-76
2023/04/08 10:55:32;;;;;;;14.30;9.50;;;10.00;99.90;;;;;;5070309;28;20048;-74
2023/04/08 10:58:06;;;;;;;13.90;9.13;;;10.00;99.90;;;;;;5053956;28;20057;-73
2023/04/08 11:00:33;;;;;;;13.98;9.80;;;9.90;99.90;;;;;;5070615;28;20084;-73
2023/04/08 11:03:09;;;;;;;14.10;9.20;;;9.90;99.90;;;;;;5071063;28;20517;-74
2023/04/08 11:05:38;;;;;;;;;;;10.00;99.90;;;;;;5054529;28;20058;-76
2023/04/08 11:08:05;;;;;;;13.27;8.23;;;10.00;99.90;;;;;;5070029;28;20320;-74
2023/04/08 11:10:36;;;;;;;13.23;8.82;;;10.10;99.90;;;;;;5070728;28;20067;-74
2023/04/08 11:13:02;;;;;;;13.88;9.40;;;10.10;99.90;;;;;;5070482;28;20040;-74
2023/04/08 11:15:29;;;;;;;12.63;8.90;;;10.10;99.90;;;;;;5070502;28;20064;-76
2023/04/08 11:17:55;;;;;;;15.25;10.10;;;10.10;99.90;;;;;;5069947;28;20511;-77
2023/04/08 11:20:21;;;;;;;12.25;8.55;;;10.10;99.90;;;;;;5053345;28;20048;-72
2023/04/08 11:22:47;;;;;;;13.82;8.88;;;10.10;99.90;;;;;;5070901;28;20053;-73
2023/04/08 11:25:13;;;;;;;13.05;9.07;;;10.10;99.90;;;;;;5071463;28;20060;-73
2023/04/08 11:27:39;;;;;;;15.15;10.32;;;10.10;99.90;;;;;;5070007;28;20067;-73
2023/04/08 11:30:09;;;;;;;14.93;9.38;;;10.10;99.90;;;;;;5069394;28;20040;-75
2023/04/08 11:32:36;;;;;;;14.55;9.30;;;10.10;99.90;;;;;;5070243;28;20044;-74
2023/04/08 11:35:04;;;;;;;12.38;8.63;;;10.10;99.90;;;;;;5053663;28;20056;-73
2023/04/08 11:37:38;;;;;;;12.20;8.70;;;10.10;99.90;;;;;;5069465;28;20634;-72
2023/04/08 11:40:08;;;;;;;11.57;7.90;;;10.10;99.90;;;;;;5071487;28;20052;-72
2023/04/08 11:42:34;;;;;;;11.05;7.72;;;10.00;99.90;;;;;;5071144;28;20082;-72
2023/04/08 11:45:00;;;;;;;13.57;8.15;;;10.00;99.90;;;;;;5070857;28;20048;-72
2023/04/08 11:47:33;;;;;;;13.07;9.27;;;10.00;99.90;;;;;;5053114;28;20127;-74
2023/04/08 11:50:00;;;;;;;13.27;8.45;;;10.10;99.90;;;;;;5069674;28;20044;-80
2023/04/08 11:52:48;;;;;;;13.73;8.55;;;10.10;99.90;;;;;;5069942;28;20098;-72
2023/04/08 11:55:25;;;;;;;14.07;8.68;;;10.20;99.90;;;;;;5069911;28;20048;-71
2023/04/08 11:57:52;;;;;;;15.70;9.52;;;10.10;99.90;;;;;;5053061;28;20058;-72
2023/04/08 12:00:19;;;;;;;12.98;8.25;;;10.00;99.90;;;;;;5070423;28;20063;-72
2023/04/08 12:02:48;;;;;;;13.65;8.98;;;10.00;99.90;;;;;;5068829;28;20670;-72
2023/04/08 12:05:15;;;;;;;13.25;9.25;;;10.00;99.90;;;;;;5068495;28;20040;-75
2023/04/08 12:07:41;;;;;;;15.05;9.85;;;10.00;99.90;;;;;;5069760;28;20393;-75
2023/04/08 12:10:08;;;;;;;15.05;9.40;;;9.90;99.90;;;;;;5070743;28;20135;-74
2023/04/08 12:12:34;;;;;;;15.45;10.55;;;9.90;99.90;;;;;;5070403;28;20047;-73
2023/04/08 12:15:00;;;;;;;15.38;10.05;;;9.90;99.90;;;;;;5070965;28;20040;-74
2023/04/08 12:17:25;;;;;;;16.92;11.50;;;9.90;99.90;;;;;;5070871;28;20515;-71
2023/04/08 12:19:51;;;;;;;17.90;11.63;;;9.80;99.90;;;;;;5070126;28;20066;-72
2023/04/08 12:22:17;;;;;;;16.25;10.68;;;9.90;99.90;;;;;;5070603;28;20052;-71
2023/04/08 12:24:43;;;;;;;18.02;11.23;;;9.80;99.90;;;;;;5070541;28;20375;-70
2023/04/08 12:27:09;;;;;;;19.40;11.45;;;9.80;99.90;;;;;;5070279;28;20045;-70
2023/04/08 12:29:35;;;;;;;17.52;11.57;;;9.80;99.90;;;;;;5070716;28;20053;-70
2023/04/08 12:32:01;;;;;;;19.25;12.30;;;9.90;99.90;;;;;;5070727;28;20097;-75
2023/04/08 12:34:27;;;;;;;20.08;12.88;;;9.90;99.90;;;;;;5070773;28;20048;-70
2023/04/08 12:36:54;;;;;;;19.92;12.48;;;9.90;99.90;;;;;;5070157;28;20173;-71
2023/04/08 12:39:20;;;;;;;22.33;12.93;;;10.00;99.90;;;;;;5069968;28;20048;-70
2023/04/08 12:41:45;;;;;;;20.70;13.55;;;10.00;99.90;;;;;;5083049;28;20059;-69
2023/04/08 12:44:11;;;;;;;23.08;14.10;;;9.90;99.90;;;;;;5094856;28;20044;-70
2023/04/08 12:46:37;;;;;;;23.17;14.30;;;9.90;99.90;;;;;;5068392;28;20072;-72
2023/04/08 12:49:03;;;;;;;18.13;12.70;;;9.90;99.90;;;;;;5057942;28;20045;-71